Time;durP1;ratioP1;P1;durP2;ratioP2;P2;SDS_P1;SDS_P2;PMS_P1;PMS_P2;Temp;Humidity;BMP_temperature;BMP_pressure;BME280_temperature;BME280_humidity;BME280_pressure;Samples;Min_cycle;Max_cycle;Signal;HPM_P1;HPM_P2
2023/06/23 00:01:00;;;;;;;2.85;2.10;;;;;;;23.33;53.05;100522.88;4177044;28;20437;-62
2023/06/23 00:03:03;;;;;;;3.30;2.63;;;;;;;23.23;53.09;100526.78;4157847;28;20128;-62
2023/06/23 00:05:08;;;;;;;4.32;2.78;;;;;;;23.18;52.82;100542.00;4176587;28;20060;-63
2023/06/23 00:07:11;;;;;;;5.00;2.55;;;;;;;23.20;52.81;100534.84;4176363;28;20053;-62
2023/06/23 00:09:14;;;;;;;4.68;2.67;;;;;;;23.20;52.87;100531.34;4176630;28;20502;-62
2023/06/23 00:11:19;;;;;;;4.63;2.90;;;;;;;23.09;53.03;100531.72;4174037;28;20044;-63
2023/06/23 00:13:23;;;;;;;4.32;3.08;;;;;;;23.09;52.80;100540.53;4174533;28;20068;-63
2023/06/23 00:15:26;;;;;;;;;;;;;;;23.20;52.21;100534.84;4174433;28;20520;-62
2023/06/23 00:17:30;;;;;;;5.57;3.50;;;;;;;23.09;52.79;100531.72;4175541;28;19971;-63
2023/06/23 00:19:33;;;;;;;4.93;2.95;;;;;;;23.08;53.06;100544.09;4172283;28;20044;-63
2023/06/23 00:21:37;;;;;;;5.70;2.78;;;;;;;23.11;52.59;100533.41;4175705;28;20124;-62
2023/06/23 00:23:40;;;;;;;3.55;3.03;;;;;;;23.07;52.58;100541.50;4176517;28;20554;-62
2023/06/23 00:25:43;;;;;;;6.38;3.03;;;;;;;22.98;52.75;100540.03;4159314;28;20083;-62
2023/06/23 00:27:46;;;;;;;5.82;3.67;;;;;;;22.99;52.83;100539.13;4173561;28;20049;-62
2023/06/23 00:29:48;;;;;;;5.50;3.33;;;;;;;22.97;52.83;100541.84;4161016;28;20055;-62
2023/06/23 00:31:51;;;;;;;5.45;3.67;;;;;;;22.96;52.94;100555.16;4158303;28;20048;-62
2023/06/23 00:33:54;;;;;;;6.75;3.40;;;;;;;22.97;52.84;100557.75;4159063;28;20041;-62
2023/06/23 00:35:57;;;;;;;4.70;3.55;;;;;;;22.94;52.89;100560.50;4178933;28;20044;-62
2023/06/23 00:38:03;;;;;;;5.35;4.05;;;;;;;22.97;52.71;100551.59;4159027;28;20037;-61
2023/06/23 00:40:10;;;;;;;5.07;3.75;;;;;;;22.94;52.57;100560.50;4155497;28;20482;-62
2023/06/23 00:42:13;;;;;;;5.78;3.80;;;;;;;22.85;52.56;100566.13;4161661;28;20045;-61
2023/06/23 00:44:16;;;;;;;6.40;4.38;;;;;;;22.76;52.71;100566.44;4177790;28;20037;-62
2023/06/23 00:46:24;;;;;;;7.00;4.32;;;;;;;22.81;52.61;100575.97;4158904;28;20065;-63
2023/06/23 00:48:26;;;;;;;5.68;4.13;;;;;;;22.76;52.62;100569.09;4161728;28;20033;-62
2023/06/23 00:50:30;;;;;;;5.45;3.78;;;;;;;22.80;52.46;100582.19;4159645;28;20041;-62
2023/06/23 00:52:33;;;;;;;6.22;3.58;;;;;;;22.86;52.07;100589.06;4157239;28;20296;-62
2023/06/23 00:54:37;;;;;;;5.97;4.57;;;;;;;22.71;52.60;100589.63;4160274;28;20037;-62
2023/06/23 00:56:40;;;;;;;;;;;;;;;22.59;52.30;100596.16;4142920;28;20536;-62
2023/06/23 00:58:43;;;;;;;5.68;4.03;;;;;;;22.60;52.73;100601.41;4156725;28;20004;-62
2023/06/23 01:00:46;;;;;;;5.35;4.00;;;;;;;22.65;52.33;100614.53;4158516;28;20064;-63
2023/06/23 01:02:52;;;;;;;4.78;3.60;;;;;;;22.65;52.62;100614.53;4176134;28;20087;-63
2023/06/23 01:04:57;;;;;;;5.05;3.70;;;;;;;22.66;52.69;100627.72;4156423;28;20048;-63
2023/06/23 01:07:13;;;;;;;5.18;3.70;;;;;;;22.66;52.43;100633.03;4158684;28;20045;-62
2023/06/23 01:09:39;;;;;;;5.63;3.70;;;;;;;22.58;52.53;100635.06;4160089;28;20065;-62
2023/06/23 01:11:51;;;;;;;5.30;4.03;;;;;;;22.64;52.84;100634.84;4156796;28;20080;-62
2023/06/23 01:14:02;;;;;;;5.50;3.95;;;;;;;22.67;52.69;100645.34;4173054;28;20112;-62
2023/06/23 01:16:10;;;;;;;5.53;4.10;;;;;;;22.57;52.57;100654.50;4160983;28;20149;-62
2023/06/23 01:18:21;;;;;;;4.97;3.45;;;;;;;22.54;53.22;100659.06;4160812;28;20041;-62
2023/06/23 01:20:29;;;;;;;5.82;4.15;;;;;;;22.48;53.19;100663.63;4157773;28;20041;-62
2023/06/23 01:22:37;;;;;;;4.97;3.70;;;;;;;22.56;53.00;100666.06;4161557;28;20045;-63
2023/06/23 01:24:51;;;;;;;5.32;3.80;;;;;;;22.52;53.50;100668.84;4158571;28;20041;-62
2023/06/23 01:27:25;;;;;;;6.25;4.40;;;;;;;22.42;53.63;100663.81;4176002;28;20504;-62
2023/06/23 01:29:32;;;;;;;5.50;3.65;;;;;;;22.41;53.80;100670.03;4174912;28;20059;-62
2023/06/23 01:31:43;;;;;;;8.57;4.22;;;;;;;22.49;53.95;100664.50;4160501;28;20515;-62
2023/06/23 01:33:50;;;;;;;9.13;4.78;;;;;;;22.48;54.21;100666.28;4177963;28;20096;-62
2023/06/23 01:36:02;;;;;;;5.57;4.40;;;;;;;22.44;54.46;100674.38;4178241;28;20124;-63
2023/06/23 01:38:11;;;;;;;5.80;4.38;;;;;;;22.44;54.65;100674.38;4161292;28;20558;-63
2023/06/23 01:40:17;;;;;;;7.03;5.20;;;;;;;22.45;54.92;100681.41;4173778;28;20051;-62
2023/06/23 01:42:25;;;;;;;6.38;4.68;;;;;;;22.45;54.87;100684.91;4160257;28;20048;-62
2023/06/23 01:44:32;;;;;;;6.43;4.50;;;;;;;22.44;54.75;100675.25;4174103;28;20083;-62
2023/06/23 01:46:36;;;;;;;5.78;4.35;;;;;;;22.39;54.70;100681.63;4157605;28;20407;-62
2023/06/23 01:48:43;;;;;;;5.63;4.28;;;;;;;22.35;54.96;100690.56;4177818;28;20522;-62
2023/06/23 01:50:47;;;;;;;5.75;4.25;;;;;;;22.27;55.21;100683.69;4173030;28;20045;-62
2023/06/23 01:52:56;;;;;;;5.85;4.35;;;;;;;22.25;55.09;100685.53;4144636;28;20045;-62
2023/06/23 01:55:01;;;;;;;5.93;4.40;;;;;;;22.23;55.34;100679.41;4160561;28;20084;-62
2023/06/23 01:57:06;;;;;;;5.45;3.95;;;;;;;22.21;55.38;100680.34;4178890;28;20278;-62
2023/06/23 01:59:11;;;;;;;5.57;4.20;;;;;;;22.21;55.27;100683.00;4161137;28;20029;-62
2023/06/23 02:01:16;;;;;;;;;;;;;;;22.14;55.59;100672.59;4159570;28;20064;-62
2023/06/23 02:03:19;;;;;;;6.40;5.00;;;;;;;22.14;55.41;100682.34;4171009;28;19963;-62
2023/06/23 02:05:26;;;;;;;5.70;4.38;;;;;;;22.22;55.42;100671.50;4177444;28;20401;-62
2023/06/23 02:07:31;;;;;;;6.22;4.45;;;;;;;22.27;55.40;100669.59;4160994;28;20037;-62
2023/06/23 02:09:37;;;;;;;5.72;4.22;;;;;;;22.26;55.19;100666.06;4178353;28;20048;-62
2023/06/23 02:11:40;;;;;;;7.45;4.38;;;;;;;22.25;55.22;100659.06;4174888;28;20124;-61
2023/06/23 02:13:45;;;;;;;8.65;5.43;;;;;;;22.19;55.29;100653.91;4159412;28;20045;-63
2023/06/23 02:15:50;;;;;;;8.95;5.18;;;;;;;22.13;55.34;100660.28;4160751;28;20042;-62
2023/06/23 02:17:55;;;;;;;6.78;4.63;;;;;;;22.14;55.27;100656.72;4160254;28;20050;-62
2023/06/23 02:20:00;;;;;;;6.13;4.85;;;;;;;22.08;55.37;100646.31;4160738;28;20056;-63
2023/06/23 02:22:05;;;;;;;6.57;5.15;;;;;;;22.00;55.64;100652.75;4174592;28;20032;-63
2023/06/23 02:24:08;;;;;;;7.35;4.85;;;;;;;21.99;55.45;100641.31;4158638;28;20043;-62
2023/06/23 02:26:11;;;;;;;6.53;4.20;;;;;;;22.01;55.42;100657.16;4154798;28;20034;-62
2023/06/23 02:28:14;;;;;;;6.45;4.53;;;;;;;22.04;55.59;100654.41;4159322;28;20046;-63
2023/06/23 02:30:19;;;;;;;8.18;5.38;;;;;;;22.00;55.75;100652.75;4176109;28;20494;-63
2023/06/23 02:32:25;;;;;;;6.22;4.32;;;;;;;21.96;55.76;100652.84;4160777;28;20491;-63
2023/06/23 02:34:29;;;;;;;5.90;4.35;;;;;;;21.90;56.02;100661.00;4172959;28;20037;-62
2023/06/23 02:36:42;;;;;;;6.50;4.63;;;;;;;21.90;56.04;100671.56;4160361;28;20040;-62
2023/06/23 02:38:47;;;;;;;6.72;4.82;;;;;;;21.83;56.23;100666.47;4176113;28;20065;-61
2023/06/23 02:40:51;;;;;;;6.30;4.70;;;;;;;21.85;56.11;100665.53;4155036;28;20065;-62
2023/06/23 02:43:03;;;;;;;5.88;4.38;;;;;;;21.87;56.27;100676.94;4168934;28;20042;-62
2023/06/23 02:45:13;;;;;;;7.85;5.13;;;;;;;21.92;55.94;100685.63;4156360;28;20116;-62
2023/06/23 02:47:19;;;;;;;6.22;4.80;;;;;;;21.91;55.97;100690.97;4172568;28;20060;-63
2023/06/23 02:49:26;;;;;;;6.40;4.75;;;;;;;21.95;56.01;100693.47;4173522;28;20040;-63
2023/06/23 02:51:31;;;;;;;7.20;4.70;;;;;;;21.99;56.14;100704.84;4153645;28;20125;-62
2023/06/23 02:53:35;;;;;;;6.47;4.72;;;;;;;22.02;55.78;100704.75;4169345;28;20593;-63
2023/06/23 02:55:44;;;;;;;6.90;4.10;;;;;;;22.11;55.67;100703.63;4157761;28;20455;-63
2023/06/23 02:57:50;;;;;;;6.20;4.25;;;;;;;22.15;55.56;100713.19;4154686;28;20084;-63
2023/06/23 02:59:54;;;;;;;5.45;4.07;;;;;;;22.13;55.70;100722.97;4177809;28;20450;-62
2023/06/23 03:01:59;;;;;;;8.30;4.93;;;;;;;22.14;55.54;100714.13;4159130;28;20048;-63
2023/06/23 03:04:02;;;;;;;7.43;4.43;;;;;;;22.15;55.66;100726.41;4172520;28;20045;-63
2023/06/23 03:06:06;;;;;;;7.75;4.60;;;;;;;22.09;55.90;100722.19;4156766;28;20049;-63
2023/06/23 03:08:11;;;;;;;6.00;4.60;;;;;;;22.05;56.10;100730.25;4174292;28;20033;-63
2023/06/23 03:10:15;;;;;;;10.25;5.38;;;;;;;22.05;56.25;100732.91;4138767;28;20052;-62
2023/06/23 03:12:19;;;;;;;9.60;4.80;;;;;;;22.02;56.29;100735.63;4161047;28;20041;-62
2023/06/23 03:14:23;;;;;;;7.88;5.25;;;;;;;22.01;56.27;100737.44;4175456;28;20060;-63
2023/06/23 03:16:31;;;;;;;6.97;4.57;;;;;;;22.04;56.38;100744.44;4158414;28;20120;-62
2023/06/23 03:18:37;;;;;;;8.60;5.20;;;;;;;22.06;56.14;100735.50;4157781;28;20037;-63
2023/06/23 03:20:47;;;;;;;7.00;5.10;;;;;;;22.04;56.12;100729.41;4154784;28;20545;-62
2023/06/23 03:22:55;;;;;;;6.57;4.50;;;;;;;22.00;56.18;100737.47;4171166;22;20140;-62
2023/06/23 03:25:20;;;;;;;7.30;5.38;;;;;;;22.07;55.88;100736.38;4159848;28;20534;-61
2023/06/23 03:27:26;;;;;;;7.07;4.78;;;;;;;22.05;55.69;100747.03;4157699;28;20072;-61
2023/06/23 03:29:33;;;;;;;6.65;4.72;;;;;;;22.04;55.79;100745.28;4160727;28;20091;-61
2023/06/23 03:31:41;;;;;;;6.60;5.22;;;;;;;22.06;55.84;100740.78;4154347;28;20041;-61
2023/06/23 03:33:47;;;;;;;6.97;4.90;;;;;;;22.00;55.85;100742.78;4144220;28;20045;-61
2023/06/23 03:35:53;;;;;;;7.28;4.50;;;;;;;21.92;56.12;100746.50;4134687;28;20065;-61
2023/06/23 03:38:00;;;;;;;6.45;4.65;;;;;;;22.02;55.76;100749.75;4124293;28;20587;-61
2023/06/23 03:40:08;;;;;;;7.70;4.63;;;;;;;22.08;55.56;100756.66;4160912;28;20037;-61
2023/06/23 03:42:12;;;;;;;7.32;5.53;;;;;;;21.98;55.52;100745.47;4160688;28;20068;-61
2023/06/23 03:44:23;;;;;;;9.48;5.82;;;;;;;22.01;55.23;100753.31;4159488;28;20068;-61
2023/06/23 03:46:32;;;;;;;6.32;4.78;;;;;;;21.88;55.49;100763.38;4160386;28;20053;-62
2023/06/23 03:48:39;;;;;;;9.05;6.13;;;;;;;21.85;55.31;100765.25;4160792;28;20029;-61
2023/06/23 03:50:46;;;;;;;8.45;5.50;;;;;;;21.87;56.52;100764.28;4161153;28;20473;-65
2023/06/23 03:52:50;;;;;;;7.95;5.47;;;;;;;22.02;56.03;100768.28;4157411;28;20045;-65
2023/06/23 03:54:54;;;;;;;10.00;6.50;;;;;;;21.96;55.14;100773.75;4135080;28;20460;-65
2023/06/23 03:56:57;;;;;;;;;;;;;;;21.82;55.22;100776.78;4160228;28;20040;-66
2023/06/23 03:59:03;;;;;;;7.93;6.15;;;;;;;21.83;55.32;100790.88;4161601;28;19983;-68
2023/06/23 04:01:06;;;;;;;8.20;6.10;;;;;;;21.87;55.18;100780.16;4164213;28;20042;-66
2023/06/23 04:03:11;;;;;;;7.78;5.93;;;;;;;21.93;55.14;100787.06;4164042;28;20128;-67
2023/06/23 04:05:15;;;;;;;;;;;;;;;21.90;55.31;100796.00;4165453;28;20033;-67
2023/06/23 04:07:21;;;;;;;8.98;5.85;;;;;;;21.92;55.20;100799.44;4143222;28;19922;-66
2023/06/23 04:09:26;;;;;;;9.10;6.93;;;;;;;21.98;55.32;100801.06;4146155;28;20038;-66
2023/06/23 04:11:31;;;;;;;10.35;6.07;;;;;;;22.01;55.06;100808.06;4165430;28;20034;-66
2023/06/23 04:13:38;;;;;;;9.73;6.22;;;;;;;21.96;55.11;100806.41;4147271;28;20474;-66
2023/06/23 04:15:44;;;;;;;8.77;6.13;;;;;;;21.94;55.30;100805.56;4163675;28;20052;-66
2023/06/23 04:17:49;;;;;;;8.85;7.22;;;;;;;21.84;55.45;100808.50;4146000;28;20185;-66
2023/06/23 04:19:56;;;;;;;8.60;6.47;;;;;;;21.76;55.77;100808.72;4161819;28;20060;-66
2023/06/23 04:22:03;;;;;;;8.57;6.47;;;;;;;21.68;56.17;100818.63;4143458;28;20057;-66
2023/06/23 04:24:08;;;;;;;8.48;6.35;;;;;;;21.76;56.27;100820.16;4164259;28;20073;-65
2023/06/23 04:26:13;;;;;;;9.13;6.43;;;;;;;21.82;56.21;100821.78;4160518;28;20029;-66
2023/06/23 04:28:21;;;;;;;9.68;6.93;;;;;;;21.81;56.15;100827.97;4164730;28;20107;-66
2023/06/23 04:30:27;;;;;;;11.13;7.30;;;;;;;21.74;56.05;100824.66;4143671;28;20137;-67
2023/06/23 04:32:33;;;;;;;10.43;8.02;;;;;;;21.75;56.01;100833.44;4170031;28;20065;-67
2023/06/23 04:34:36;;;;;;;9.23;7.53;;;;;;;21.68;56.18;100839.81;4159530;28;20103;-66
2023/06/23 04:36:45;;;;;;;7.90;6.55;;;;;;;21.66;56.46;100844.28;4165252;28;20064;-66
2023/06/23 04:38:54;;;;;;;10.20;7.65;;;;;;;21.64;56.48;100846.97;4162319;28;20042;-66
2023/06/23 04:41:00;;;;;;;11.02;8.15;;;;;;;21.68;56.37;100847.75;4166718;28;20399;-66
2023/06/23 04:43:09;;;;;;;9.05;7.35;;;;;;;21.60;56.73;100854.09;4166403;28;20068;-66
2023/06/23 04:45:16;;;;;;;8.88;7.28;;;;;;;21.64;56.85;100862.84;4166204;28;20446;-66
2023/06/23 04:47:22;;;;;;;11.93;8.07;;;;;;;21.68;56.72;100866.25;4157601;28;20033;-66
2023/06/23 04:49:30;;;;;;;12.77;8.63;;;;;;;21.74;56.58;100863.44;4159833;28;20549;-66
2023/06/23 04:51:38;;;;;;;9.80;8.18;;;;;;;21.70;56.33;100872.38;4163130;28;20124;-66
2023/06/23 04:53:53;;;;;;;8.27;6.97;;;;;;;21.67;56.63;100881.28;4160764;28;20128;-66
2023/06/23 04:56:00;;;;;;;11.30;7.63;;;;;;;21.66;56.43;100876.88;4142525;28;20034;-66
2023/06/23 04:58:06;;;;;;;11.20;8.50;;;;;;;21.68;56.28;100868.91;4139998;28;20052;-67
2023/06/23 05:00:11;;;;;;;8.70;7.03;;;;;;;21.71;56.48;100879.41;4162550;28;20044;-66
2023/06/23 05:02:16;;;;;;;10.15;8.27;;;;;;;21.67;56.22;100872.44;4165018;28;20087;-67
2023/06/23 05:04:20;;;;;;;9.93;7.68;;;;;;;21.69;56.11;100875.94;4164766;28;20068;-66
2023/06/23 05:06:26;;;;;;;11.77;9.38;;;;;;;21.71;56.28;100874.13;4164290;28;20601;-66
2023/06/23 05:08:30;;;;;;;14.48;8.23;;;;;;;21.69;56.40;100878.59;4145877;28;20096;-66
2023/06/23 05:10:34;;;;;;;9.07;7.50;;;;;;;21.72;56.28;100875.88;4164930;28;20063;-67
2023/06/23 05:12:39;;;;;;;11.63;9.82;;;;;;;21.73;56.28;100885.56;4159312;28;20088;-66
2023/06/23 05:14:44;;;;;;;10.50;8.85;;;;;;;21.65;56.45;100891.00;4166054;28;20032;-66
2023/06/23 05:16:49;;;;;;;13.57;9.55;;;;;;;21.57;56.80;100888.56;4145433;28;20081;-66
2023/06/23 05:18:52;;;;;;;;;;;;;;;21.48;56.79;100894.06;4159848;28;20048;-67
2023/06/23 05:20:59;;;;;;;12.23;9.00;;;;;;;21.40;57.08;100896.00;4146473;28;20465;-67
2023/06/23 05:23:05;;;;;;;10.68;9.13;;;;;;;21.40;57.41;100896.00;4161867;28;20044;-67
2023/06/23 05:25:09;;;;;;;12.23;9.13;;;;;;;21.49;56.72;100895.78;4163235;28;20041;-66
2023/06/23 05:27:12;;;;;;;12.60;9.65;;;;;;;;;;4146174;28;20052;-67
2023/06/23 05:29:18;;;;;;;11.60;8.65;;;;;;;21.51;56.47;100878.16;4146111;28;20467;-67
2023/06/23 05:31:23;;;;;;;9.80;8.02;;;;;;;21.58;56.33;100895.59;4161539;28;20064;-66
2023/06/23 05:33:28;;;;;;;10.65;8.88;;;;;;;21.55;55.95;100900.97;4147751;28;20042;-66
2023/06/23 05:35:33;;;;;;;10.32;7.63;;;;;;;21.59;56.03;100905.25;4146836;28;20128;-66
2023/06/23 05:37:39;;;;;;;10.82;8.55;;;;;;;21.59;56.00;100910.56;4145555;28;20125;-64
2023/06/23 05:39:46;;;;;;;9.82;8.27;;;;;;;21.61;55.75;100906.13;4163318;28;20503;-66
2023/06/23 05:41:49;;;;;;;10.63;7.93;;;;;;;21.60;55.83;100916.72;4163398;28;20072;-64
2023/06/23 05:43:52;;;;;;;9.50;7.97;;;;;;;21.64;55.95;100925.44;4162722;28;20071;-67
2023/06/23 05:45:57;;;;;;;12.90;7.68;;;;;;;21.67;55.81;100928.03;4161327;28;20414;-66
2023/06/23 05:48:05;;;;;;;12.38;8.15;;;;;;;21.72;55.66;100928.78;4163585;28;20487;-66
2023/06/23 05:50:20;;;;;;;10.80;7.20;;;;;;;21.73;55.47;100935.84;4144063;28;20061;-66
2023/06/23 05:52:23;;;;;;;8.45;6.05;;;;;;;21.66;55.79;100939.53;4162706;28;20407;-66
2023/06/23 05:54:30;;;;;;;11.52;8.18;;;;;;;21.66;55.66;100937.75;4162549;28;20124;-66
2023/06/23 05:56:37;;;;;;;17.40;7.53;;;;;;;21.68;55.51;100943.84;4165021;28;20033;-64
2023/06/23 05:58:45;;;;;;;8.35;6.10;;;;;;;21.73;55.80;100943.78;4161328;28;20056;-66
2023/06/23 06:00:55;;;;;;;8.25;6.20;;;;;;;21.79;55.43;100946.25;4161916;28;20160;-65
2023/06/23 06:03:01;;;;;;;85.78;16.67;;;;;;;21.77;55.10;100950.69;4145072;28;20070;-65
2023/06/23 06:05:08;;;;;;;24.42;8.43;;;;;;;21.89;54.93;100944.22;4143419;28;20038;-65
2023/06/23 06:07:13;;;;;;;10.55;6.63;;;;;;;22.02;54.15;100956.28;4157846;28;20033;-65
2023/06/23 06:09:17;;;;;;;8.00;6.70;;;;;;;22.23;53.61;100960.13;4157168;28;20037;-65
2023/06/23 06:11:22;;;;;;;8.40;6.30;;;;;;;22.17;52.73;100957.66;4150370;28;20132;-66
2023/06/23 06:13:28;;;;;;;8.95;6.78;;;;;;;22.24;52.36;100969.84;4140341;28;20167;-65
2023/06/23 06:15:32;;;;;;;12.02;7.15;;;;;;;22.54;51.03;100972.59;4139922;28;20511;-66
2023/06/23 06:17:39;;;;;;;12.25;6.85;;;;;;;22.60;50.81;100971.56;4156849;28;20037;-65
2023/06/23 06:19:43;;;;;;;10.75;6.13;;;;;;;22.68;50.83;100977.53;4137729;28;20104;-65
2023/06/23 06:21:47;;;;;;;7.45;5.13;;;;;;;22.64;50.59;100975.84;4156071;28;20037;-65
2023/06/23 06:23:53;;;;;;;9.25;6.22;;;;;;;22.65;49.75;100980.25;4155182;28;20147;-65
2023/06/23 06:25:57;;;;;;;7.75;4.90;;;;;;;22.55;50.19;100979.63;4156886;28;20037;-65
2023/06/23 06:28:02;;;;;;;7.35;5.63;;;;;;;22.45;49.98;100986.09;4157694;28;20045;-65
2023/06/23 06:30:11;;;;;;;7.85;4.47;;;;;;;22.40;50.56;100996.81;4158264;28;20076;-66
2023/06/23 06:32:16;;;;;;;7.72;4.75;;;;;;;22.51;50.00;100985.06;4159495;28;20052;-65
2023/06/23 06:34:23;;;;;;;9.40;5.25;;;;;;;22.78;48.60;100999.31;4151897;28;20132;-64
2023/06/23 06:36:29;;;;;;;6.63;4.93;;;;;;;22.73;48.71;100998.59;4157917;28;20057;-66
2023/06/23 06:38:35;;;;;;;6.80;4.90;;;;;;;22.68;48.89;101001.38;4155760;28;20044;-66
2023/06/23 06:40:40;;;;;;;9.38;5.28;;;;;;;22.55;49.61;101003.47;4159521;28;20167;-66
2023/06/23 06:42:43;;;;;;;7.63;4.40;;;;;;;22.70;49.84;101010.13;4159285;28;20048;-66
2023/06/23 06:44:47;;;;;;;8.13;5.43;;;;;;;22.84;48.87;101012.41;4140150;28;20097;-65
2023/06/23 06:46:53;;;;;;;6.10;4.25;;;;;;;22.66;49.78;101019.97;4159652;28;20563;-64
2023/06/23 06:48:57;;;;;;;10.13;4.82;;;;;;;22.66;49.32;101019.97;4158455;28;20045;-65
2023/06/23 06:51:00;;;;;;;9.98;5.18;;;;;;;22.58;49.28;101024.59;4141608;28;20064;-65
2023/06/23 06:53:05;;;;;;;6.63;4.22;;;;;;;22.54;49.52;101030.03;4155288;28;20057;-65
2023/06/23 06:55:14;;;;;;;7.25;4.93;;;;;;;22.65;49.17;101030.63;4159676;28;20496;-64
2023/06/23 06:57:18;;;;;;;9.15;4.97;;;;;;;22.69;48.79;101034.91;4158169;28;20177;-64
2023/06/23 06:59:21;;;;;;;10.50;5.22;;;;;;;22.84;48.77;101044.22;4154719;28;20128;-64
2023/06/23 07:01:24;;;;;;;8.88;4.70;;;;;;;22.73;48.96;101041.00;4158794;28;20645;-64
2023/06/23 07:03:29;;;;;;;7.10;4.20;;;;;;;22.69;48.93;101044.63;4162777;28;20557;-64
2023/06/23 07:05:33;;;;;;;6.68;4.65;;;;;;;22.73;48.93;101046.31;4146146;28;20487;-64
2023/06/23 07:07:37;;;;;;;6.78;4.47;;;;;;;22.91;48.13;101045.81;4159761;28;20033;-64
2023/06/23 07:09:39;;;;;;;8.73;5.20;;;;;;;23.02;47.82;101049.00;4163353;28;20502;-65
2023/06/23 07:11:42;;;;;;;10.05;4.97;;;;;;;23.13;47.15;101050.50;4160015;28;20037;-65
2023/06/23 07:13:45;;;;;;;9.25;4.60;;;;;;;23.38;46.47;101052.44;4162167;28;20085;-65
2023/06/23 07:15:48;;;;;;;9.77;4.30;;;;;;;23.23;47.30;101056.44;4145529;28;20041;-64
2023/06/23 07:17:51;;;;;;;7.20;4.07;;;;;;;23.27;47.56;101052.78;4126197;28;20050;-65
2023/06/23 07:19:55;;;;;;;6.97;4.32;;;;;;;23.37;47.98;101050.72;4159651;28;20420;-65
2023/06/23 07:21:58;;;;;;;6.93;4.90;;;;;;;23.46;47.20;101059.28;4162689;28;20091;-64
2023/06/23 07:24:01;;;;;;;8.23;4.50;;;;;;;23.43;46.98;101062.00;4159574;28;20124;-65
2023/06/23 07:26:04;;;;;;;9.40;4.88;;;;;;;23.46;46.16;101059.28;4163108;28;20136;-64
2023/06/23 07:28:07;;;;;;;5.20;3.78;;;;;;;23.60;46.33;101060.66;4140842;28;20077;-65
2023/06/23 07:30:10;;;;;;;6.93;4.55;;;;;;;23.61;45.64;101065.91;4162236;28;20034;-65
2023/06/23 07:32:15;;;;;;;6.95;4.72;;;;;;;23.76;45.61;101069.88;4152840;28;20395;-65
2023/06/23 07:34:18;;;;;;;;;;;;;;;23.85;45.24;101064.28;4161890;28;20200;-66
2023/06/23 07:36:22;;;;;;;5.97;4.72;;;;;;;23.70;45.98;101073.59;4147029;28;19956;-66
2023/06/23 07:38:27;;;;;;;6.82;4.20;;;;;;;23.72;46.01;101068.22;4160154;28;20058;-65
2023/06/23 07:40:30;;;;;;;5.57;4.32;;;;;;;23.83;45.99;101062.56;4159193;28;20076;-65
2023/06/23 07:42:33;;;;;;;5.63;3.67;;;;;;;24.05;45.84;101062.81;4162417;28;20037;-65
2023/06/23 07:44:36;;;;;;;8.25;4.78;;;;;;;24.12;45.27;101079.41;4159926;28;20132;-66
2023/06/23 07:46:39;;;;;;;7.78;4.43;;;;;;;24.09;44.84;101080.38;4150794;28;20029;-66
2023/06/23 07:48:43;;;;;;;5.85;3.75;;;;;;;23.92;44.93;101083.59;4163644;28;20103;-65
2023/06/23 07:50:47;;;;;;;5.60;3.75;;;;;;;24.03;44.89;101086.78;4162012;28;20049;-65
2023/06/23 07:52:54;;;;;;;6.20;4.30;;;;;;;24.05;45.12;101071.66;4159797;28;20452;-66
2023/06/23 07:54:57;;;;;;;6.43;3.70;;;;;;;24.11;45.33;101077.66;4161391;28;20518;-66
2023/06/23 07:57:01;;;;;;;7.03;4.40;;;;;;;24.02;45.20;101079.72;4160759;28;20445;-66
2023/06/23 07:59:04;;;;;;;8.68;4.90;;;;;;;24.07;44.72;101087.53;4156391;28;20055;-65
2023/06/23 08:01:16;;;;;;;7.95;4.07;;;;;;;23.91;45.02;101097.78;4136741;28;20038;-65
2023/06/23 08:03:19;;;;;;;5.10;3.65;;;;;;;23.83;45.12;101095.34;4137985;28;20128;-66
2023/06/23 08:05:23;;;;;;;6.80;4.88;;;;;;;23.82;44.69;101092.72;4141719;28;20482;-65
2023/06/23 08:07:26;;;;;;;5.78;4.30;;;;;;;24.01;44.51;101090.41;4160233;28;20039;-65
2023/06/23 08:09:30;;;;;;;9.50;4.32;;;;;;;24.27;44.08;101102.84;4160512;28;20514;-66
2023/06/23 08:11:33;;;;;;;;;;;;;;;24.28;44.01;101109.88;4145173;28;20050;-66
2023/06/23 08:13:38;;;;;;;7.20;4.03;;;;;;;24.33;43.99;101115.06;4146415;28;19927;-65
2023/06/23 08:15:41;;;;;;;8.98;4.40;;;;;;;24.57;43.23;101118.66;4137874;28;20661;-66
2023/06/23 08:17:44;;;;;;;6.97;4.60;;;;;;;24.61;42.92;101115.03;4156769;28;20050;-66
2023/06/23 08:19:47;;;;;;;5.72;4.65;;;;;;;24.55;42.74;101110.75;4154494;28;20048;-65
2023/06/23 08:21:50;;;;;;;4.85;3.40;;;;;;;24.56;42.93;101112.50;4138785;28;20041;-65
2023/06/23 08:23:53;;;;;;;7.75;4.78;;;;;;;24.90;41.96;101119.34;4156279;28;20041;-65
2023/06/23 08:25:57;;;;;;;6.25;4.18;;;;;;;24.87;42.43;101121.25;4156776;28;20483;-66
2023/06/23 08:28:00;;;;;;;7.07;3.72;;;;;;;24.84;42.65;101124.03;4156797;28;20091;-66
2023/06/23 08:30:04;;;;;;;7.30;4.63;;;;;;;24.93;42.61;101123.69;4158961;28;20072;-67
2023/06/23 08:32:08;;;;;;;6.13;4.78;;;;;;;24.86;41.45;101138.97;4158570;28;20128;-67
2023/06/23 08:34:13;;;;;;;5.68;4.30;;;;;;;24.54;41.93;101134.72;4142300;28;20033;-66
2023/06/23 08:36:16;;;;;;;8.48;4.47;;;;;;;24.54;41.36;101142.69;4156976;28;20132;-65
2023/06/23 08:38:19;;;;;;;6.95;4.93;;;;;;;24.69;41.14;101136.91;4160369;28;20092;-64
2023/06/23 08:40:21;;;;;;;32.63;8.43;;;;;;;24.78;41.85;101140.16;4159844;28;20044;-64
2023/06/23 08:42:26;;;;;;;6.63;4.15;;;;;;;25.01;40.97;101148.19;4158485;28;20148;-65
2023/06/23 08:44:31;;;;;;;8.05;4.95;;;;;;;25.11;41.53;101139.91;4158694;28;20044;-65
2023/06/23 08:46:36;;;;;;;8.75;4.47;;;;;;;25.30;40.65;101143.63;4162364;28;20037;-65
2023/06/23 08:49:05;;;;;;;6.60;4.60;;;;;;;25.22;41.50;101153.72;4161761;28;20075;-65
2023/06/23 08:51:08;;;;;;;7.13;3.70;;;;;;;25.00;41.57;101157.13;4142926;28;20558;-64
2023/06/23 08:53:11;;;;;;;6.15;3.97;;;;;;;24.73;41.77;101157.13;4141485;28;20045;-64
2023/06/23 08:55:14;;;;;;;8.18;4.28;;;;;;;24.51;42.08;101161.41;4144921;28;20499;-64
2023/06/23 08:57:18;;;;;;;10.18;4.43;;;;;;;24.34;41.68;101170.81;4163239;28;20034;-64
2023/06/23 08:59:22;;;;;;;9.25;4.60;;;;;;;24.36;40.83;101150.34;4127342;28;20078;-64
2023/06/23 09:01:25;;;;;;;6.93;3.72;;;;;;;24.36;41.68;101147.69;4160059;28;20129;-64
2023/06/23 09:03:28;;;;;;;6.70;4.10;;;;;;;24.57;41.91;101153.22;4155270;28;20091;-63
2023/06/23 09:05:31;;;;;;;6.97;4.28;;;;;;;24.76;41.49;101145.53;4155394;28;20044;-63
2023/06/23 09:07:34;;;;;;;5.80;4.20;;;;;;;25.13;40.43;101133.63;4141613;28;20093;-63
2023/06/23 09:09:37;;;;;;;6.78;4.07;;;;;;;25.14;40.80;101145.13;4161724;28;20048;-63
2023/06/23 09:11:41;;;;;;;7.38;3.92;;;;;;;25.23;41.07;101142.13;4161500;28;20041;-63
2023/06/23 09:13:46;;;;;;;;;;;;;;;25.25;40.86;101140.28;4145760;28;20057;-64
2023/06/23 09:15:52;;;;;;;8.27;3.60;;;;;;;25.43;40.63;101142.28;4160537;28;20004;-64
2023/06/23 09:18:04;;;;;;;4.38;3.28;;;;;;;25.53;40.33;101147.28;4163520;28;20061;-63
2023/06/23 09:20:09;;;;;;;5.73;3.70;;;;;;;25.63;40.32;101135.38;4164833;28;20133;-63
2023/06/23 09:22:13;;;;;;;6.28;3.72;;;;;;;25.70;39.91;101150.19;4179238;22;20059;-63
2023/06/23 09:24:17;;;;;;;6.50;3.30;;;;;;;25.73;39.27;101147.41;4173080;28;20033;-64
2023/06/23 09:26:20;;;;;;;4.20;3.13;;;;;;;25.65;39.80;101157.47;4163398;28;20042;-65
2023/06/23 09:28:26;;;;;;;7.25;3.53;;;;;;;25.50;39.80;101168.72;4175141;28;20033;-64
2023/06/23 09:30:33;;;;;;;7.28;3.83;;;;;;;25.51;39.11;101168.66;4180414;28;20040;-63
2023/06/23 09:32:39;;;;;;;7.63;4.10;;;;;;;25.44;39.38;101175.97;4179476;28;20037;-63
2023/06/23 09:34:42;;;;;;;7.88;3.30;;;;;;;25.69;39.05;101166.22;4173959;28;20044;-64
2023/06/23 09:36:45;;;;;;;6.88;4.03;;;;;;;25.60;38.32;101164.78;4178901;28;20128;-64
2023/06/23 09:38:49;;;;;;;4.03;3.20;;;;;;;25.47;38.49;101163.50;4143428;28;20050;-65
2023/06/23 09:41:03;;;;;;;6.75;3.75;;;;;;;25.24;38.55;101167.81;4180925;28;20544;-65
2023/06/23 09:43:06;;;;;;;4.93;3.15;;;;;;;24.85;39.42;101168.28;4161579;28;20092;-65
2023/06/23 09:45:17;;;;;;;3.97;3.10;;;;;;;24.79;40.13;101177.34;4162611;28;20071;-65